createdAt,value
2023-03-13T00:01:16.218Z,1.90
2023-03-13T00:03:44.949Z,1.67
2023-03-13T00:06:13.414Z,1.90
2023-03-13T00:08:41.932Z,1.80
2023-03-13T00:11:10.830Z,2.30
2023-03-13T00:13:40.810Z,1.87
2023-03-13T00:16:10.278Z,1.97
2023-03-13T00:18:39.056Z,1.70
2023-03-13T00:21:08.543Z,2.10
2023-03-13T00:23:38.452Z,1.60
2023-03-13T00:26:07.985Z,1.90
2023-03-13T00:28:37.226Z,1.50
2023-03-13T00:31:07.787Z,1.80
2023-03-13T00:33:37.037Z,1.90
2023-03-13T00:36:06.690Z,1.67
2023-03-13T00:38:35.421Z,1.70
2023-03-13T00:41:05.162Z,1.77
2023-03-13T00:43:36.175Z,1.60
2023-03-13T00:46:04.932Z,1.63
2023-03-13T00:48:34.907Z,1.70
2023-03-13T00:51:03.681Z,1.77
2023-03-13T00:53:32.920Z,1.80
2023-03-13T00:56:02.159Z,1.63
2023-03-13T00:58:31.509Z,1.73
2023-03-13T01:00:59.937Z,1.50
2023-03-13T01:03:28.530Z,2.40
2023-03-13T01:05:59.395Z,1.70
2023-03-13T01:08:28.334Z,1.77
2023-03-13T01:11:00.705Z,1.73
2023-03-13T01:13:29.438Z,2.10
2023-03-13T01:15:59.697Z,1.70
2023-03-13T01:18:28.214Z,1.87
2023-03-13T01:20:56.663Z,1.70
2023-03-13T01:23:26.475Z,2.20
2023-03-13T01:25:56.048Z,1.57
2023-03-13T01:28:25.054Z,1.70
2023-03-13T01:30:53.808Z,1.67
2023-03-13T01:33:22.313Z,1.80
2023-03-13T01:35:51.761Z,1.93
2023-03-13T01:38:20.779Z,1.83
2023-03-13T01:40:51.246Z,1.70
2023-03-13T01:43:27.063Z,1.60
2023-03-13T01:46:04.839Z,1.90
2023-03-13T01:48:44.142Z,1.63
2023-03-13T01:51:15.812Z,1.93
2023-03-13T01:53:45.287Z,1.90
2023-03-13T01:56:17.847Z,1.80
2023-03-13T01:58:46.548Z,1.63
2023-03-13T02:01:16.127Z,1.40
2023-03-13T02:03:45.507Z,1.60
2023-03-13T02:06:13.939Z,1.30
2023-03-13T02:08:44.125Z,1.50
2023-03-13T02:11:17.788Z,1.40
2023-03-13T02:13:48.807Z,1.30
2023-03-13T02:16:17.994Z,1.20
2023-03-13T02:18:50.107Z,1.13
2023-03-13T02:21:33.925Z,1.20
2023-03-13T02:24:06.225Z,1.03
2023-03-13T02:26:36.090Z,1.13
2023-03-13T02:29:04.679Z,1.00
2023-03-13T02:31:33.467Z,0.90
2023-03-13T02:34:02.558Z,1.00
2023-03-13T02:36:32.620Z,1.00
2023-03-13T02:39:03.362Z,1.00
2023-03-13T02:41:33.249Z,1.10
2023-03-13T02:44:03.100Z,0.90
2023-03-13T02:46:32.484Z,0.90
2023-03-13T02:49:00.923Z,1.13
2023-03-13T02:51:31.412Z,0.93
2023-03-13T02:54:02.351Z,1.10
2023-03-13T02:56:33.555Z,1.00
2023-03-13T02:59:03.953Z,1.10
2023-03-13T03:01:33.703Z,1.10
2023-03-13T03:04:02.141Z,0.90
2023-03-13T03:06:30.843Z,1.13
2023-03-13T03:08:59.388Z,0.90
2023-03-13T03:11:29.855Z,1.00
2023-03-13T03:14:05.353Z,1.03
2023-03-13T03:16:38.839Z,1.20
2023-03-13T03:19:08.126Z,1.03
2023-03-13T03:21:36.997Z,1.23
2023-03-13T03:24:05.753Z,1.10
2023-03-13T03:26:34.302Z,0.93
2023-03-13T03:29:07.960Z,0.90
2023-03-13T03:31:36.582Z,1.23
2023-03-13T03:34:05.000Z,1.00
2023-03-13T03:36:33.505Z,0.90
2023-03-13T03:39:03.751Z,0.90
2023-03-13T03:41:32.660Z,1.00
2023-03-13T03:44:01.586Z,1.20
2023-03-13T03:46:41.672Z,1.10
2023-03-13T03:49:10.433Z,1.00
2023-03-13T03:51:38.837Z,0.87
2023-03-13T03:54:07.473Z,1.20
2023-03-13T03:56:36.326Z,1.10
2023-03-13T03:59:05.045Z,1.00
2023-03-13T04:01:47.175Z,1.00
2023-03-13T04:04:19.981Z,1.10
2023-03-13T04:06:52.764Z,1.20
2023-03-13T04:09:21.602Z,1.00
2023-03-13T04:11:49.975Z,1.30
2023-03-13T04:14:18.511Z,1.20
2023-03-13T04:16:48.919Z,1.00
2023-03-13T04:19:17.637Z,1.30
2023-03-13T04:21:46.052Z,1.00
2023-03-13T04:24:18.536Z,1.23
2023-03-13T04:26:47.315Z,1.13
2023-03-13T04:29:16.876Z,1.20
2023-03-13T04:32:10.082Z,1.50
2023-03-13T04:34:57.291Z,1.40
2023-03-13T04:37:42.171Z,1.40
2023-03-13T04:40:29.202Z,1.40
2023-03-13T04:43:07.861Z,1.43
2023-03-13T04:46:02.391Z,1.10
2023-03-13T04:48:41.459Z,0.93
2023-03-13T04:51:31.404Z,1.00
2023-03-13T04:54:35.141Z,1.03
2023-03-13T04:57:22.454Z,0.93
2023-03-13T05:00:08.043Z,0.97
2023-03-13T05:02:46.106Z,0.97
2023-03-13T05:05:41.920Z,0.90
2023-03-13T05:08:39.816Z,1.10
2023-03-13T05:11:23.039Z,1.17
2023-03-13T05:14:04.563Z,1.30
2023-03-13T05:16:59.235Z,1.37
2023-03-13T05:20:06.099Z,1.10
2023-03-13T05:22:47.280Z,1.00
2023-03-13T05:25:21.364Z,0.90
2023-03-13T05:27:55.745Z,1.10
2023-03-13T05:30:37.910Z,1.13
2023-03-13T05:33:27.288Z,0.90
2023-03-13T05:36:17.346Z,0.90
2023-03-13T05:39:01.230Z,1.00
2023-03-13T05:41:48.113Z,0.93
2023-03-13T05:44:55.626Z,1.00
2023-03-13T05:47:43.855Z,1.50
2023-03-13T05:50:30.810Z,1.27
2023-03-13T05:53:38.052Z,1.10
2023-03-13T05:56:26.646Z,1.00
2023-03-13T05:59:18.328Z,1.23
2023-03-13T06:02:10.027Z,1.00
2023-03-13T06:04:43.388Z,1.10
2023-03-13T06:07:12.600Z,1.20
2023-03-13T06:09:41.503Z,1.00
2023-03-13T06:12:13.036Z,0.80
2023-03-13T06:14:41.606Z,1.20
2023-03-13T06:17:15.981Z,0.90
2023-03-13T06:19:44.431Z,1.20
2023-03-13T06:22:12.925Z,0.90
2023-03-13T06:24:41.353Z,0.90
2023-03-13T06:27:09.859Z,0.80
2023-03-13T06:29:39.894Z,0.90
2023-03-13T06:32:08.724Z,0.90
2023-03-13T06:34:40.041Z,0.70
2023-03-13T06:37:08.522Z,1.00
2023-03-13T06:39:36.953Z,0.90
2023-03-13T06:42:05.863Z,0.77
2023-03-13T06:44:34.293Z,0.87
2023-03-13T06:47:04.846Z,0.77
2023-03-13T06:49:33.496Z,0.90
2023-03-13T06:52:02.026Z,0.83
2023-03-13T06:54:30.647Z,0.70
2023-03-13T06:56:59.102Z,0.60
2023-03-13T06:59:27.687Z,0.70
2023-03-13T07:01:56.263Z,0.90
2023-03-13T07:04:26.362Z,0.80
2023-03-13T07:06:54.779Z,0.77
2023-03-13T07:09:23.427Z,0.80
2023-03-13T07:11:51.863Z,0.90
2023-03-13T07:14:20.388Z,0.80
2023-03-13T07:16:49.031Z,0.90
2023-03-13T07:19:18.015Z,0.90
2023-03-13T07:21:49.840Z,1.00
2023-03-13T07:24:18.696Z,0.70
2023-03-13T07:27:03.892Z,0.80
2023-03-13T07:29:33.334Z,0.70
2023-03-13T07:32:02.174Z,0.90
2023-03-13T07:34:30.689Z,0.90
2023-03-13T07:37:00.555Z,0.80
2023-03-13T07:39:28.928Z,0.70
2023-03-13T07:41:57.306Z,1.00
2023-03-13T07:44:26.087Z,0.70
2023-03-13T07:46:54.465Z,0.80
2023-03-13T07:49:22.947Z,0.90
2023-03-13T07:51:51.644Z,0.90
2023-03-13T07:54:21.621Z,0.80
2023-03-13T07:56:50.983Z,0.77
2023-03-13T07:59:19.440Z,0.57
2023-03-13T08:01:48.213Z,0.90
2023-03-13T08:04:18.282Z,0.70
2023-03-13T08:06:46.655Z,0.70
2023-03-13T08:09:15.131Z,0.80
2023-03-13T08:11:45.394Z,0.77
2023-03-13T08:14:14.233Z,0.80
2023-03-13T08:16:42.719Z,0.60
2023-03-13T08:19:12.000Z,0.90
2023-03-13T08:21:40.419Z,0.77
2023-03-13T08:24:10.672Z,0.60
2023-03-13T08:26:40.002Z,0.50
2023-03-13T08:29:10.728Z,0.60
2023-03-13T08:31:40.778Z,0.70
2023-03-13T08:34:09.195Z,0.70
2023-03-13T08:36:38.258Z,0.52
2023-03-13T08:39:07.676Z,0.73
2023-03-13T08:41:37.175Z,0.60
2023-03-13T08:44:06.242Z,0.80
2023-03-13T08:46:37.366Z,0.67
2023-03-13T08:49:06.429Z,0.83
2023-03-13T08:51:35.493Z,0.50
2023-03-13T08:54:05.106Z,0.73
2023-03-13T08:56:34.843Z,0.70
2023-03-13T08:59:05.548Z,0.70
2023-03-13T09:01:35.197Z,0.60
2023-03-13T09:04:05.490Z,0.70
2023-03-13T09:06:34.001Z,0.50
2023-03-13T09:09:02.905Z,0.70
2023-03-13T09:11:31.469Z,0.60
2023-03-13T09:14:00.332Z,0.60
2023-03-13T09:16:29.912Z,0.63
2023-03-13T09:18:58.914Z,0.68
2023-03-13T09:21:29.970Z,0.60
2023-03-13T09:23:59.029Z,0.50
2023-03-13T09:26:28.102Z,0.50
2023-03-13T09:28:57.273Z,0.57
2023-03-13T09:31:26.518Z,0.60
2023-03-13T09:33:55.102Z,0.50
2023-03-13T09:36:24.824Z,0.60
2023-03-13T09:38:55.623Z,0.80
2023-03-13T09:41:29.665Z,0.50
2023-03-13T09:44:02.587Z,0.60
2023-03-13T09:46:35.475Z,0.65
2023-03-13T09:49:05.911Z,0.70
2023-03-13T09:51:37.223Z,0.60
2023-03-13T09:54:10.197Z,0.63
2023-03-13T09:56:43.498Z,0.40
2023-03-13T09:59:17.021Z,0.60
2023-03-13T10:01:46.205Z,0.50
2023-03-13T10:04:23.373Z,0.52
2023-03-13T10:06:52.177Z,0.70
2023-03-13T10:09:30.780Z,0.60
2023-03-13T10:12:06.145Z,0.55
2023-03-13T10:14:40.411Z,0.50
2023-03-13T10:17:11.803Z,0.40
2023-03-13T10:19:43.517Z,0.40
2023-03-13T10:22:14.911Z,0.52
2023-03-13T10:24:48.533Z,0.50
2023-03-13T10:27:17.114Z,0.43
2023-03-13T10:29:45.680Z,0.50
2023-03-13T10:32:15.127Z,0.50
2023-03-13T10:34:48.220Z,0.63
2023-03-13T10:37:17.255Z,0.40
2023-03-13T10:39:47.053Z,0.52
2023-03-13T10:42:21.250Z,0.47
2023-03-13T10:44:49.931Z,0.70
2023-03-13T10:47:18.334Z,0.88
2023-03-13T10:49:50.781Z,0.73
2023-03-13T10:52:35.174Z,1.20
2023-03-13T10:55:07.620Z,1.10
2023-03-13T10:57:36.800Z,0.60
2023-03-13T11:00:11.338Z,0.80
2023-03-13T11:02:40.839Z,0.40
2023-03-13T11:05:24.310Z,0.80
2023-03-13T11:07:53.365Z,0.50
2023-03-13T11:10:25.556Z,0.63
2023-03-13T11:12:55.593Z,0.45
2023-03-13T11:15:26.588Z,0.77
2023-03-13T11:18:00.830Z,0.70
2023-03-13T11:20:30.014Z,0.82
2023-03-13T11:23:06.588Z,0.70
2023-03-13T11:25:39.504Z,0.63
2023-03-13T11:28:22.050Z,0.70
2023-03-13T11:30:58.632Z,0.80
2023-03-13T11:33:53.395Z,0.50
2023-03-13T11:36:25.625Z,0.63
2023-03-13T11:38:55.640Z,0.70
2023-03-13T11:41:33.262Z,1.27
2023-03-13T11:44:08.683Z,0.60
2023-03-13T11:46:45.720Z,0.95
2023-03-13T11:49:29.145Z,0.70
2023-03-13T11:52:04.493Z,1.00
2023-03-13T11:54:39.525Z,0.70
2023-03-13T11:57:13.400Z,0.70
2023-03-13T11:59:48.767Z,0.60
2023-03-13T12:02:20.799Z,0.80
2023-03-13T12:04:53.385Z,1.00
2023-03-13T12:07:25.028Z,0.90
2023-03-13T12:09:55.868Z,0.70
2023-03-13T12:12:33.397Z,0.90
2023-03-13T12:15:06.432Z,1.15
2023-03-13T12:17:36.013Z,0.70
2023-03-13T12:20:09.420Z,0.98
2023-03-13T12:22:40.461Z,0.77
2023-03-13T12:25:14.604Z,1.00
2023-03-13T12:27:47.710Z,1.08
2023-03-13T12:30:26.625Z,0.90
2023-03-13T12:32:59.630Z,1.00
2023-03-13T12:35:29.410Z,0.88
2023-03-13T12:38:03.624Z,1.00
2023-03-13T12:40:34.211Z,0.75
2023-03-13T12:43:06.355Z,0.80
2023-03-13T12:45:36.511Z,0.95
2023-03-13T12:48:25.224Z,0.82
2023-03-13T12:51:01.182Z,0.70
2023-03-13T12:53:38.577Z,0.73
2023-03-13T12:56:26.154Z,0.65
2023-03-13T12:58:58.306Z,0.90
2023-03-13T13:01:31.649Z,1.08
2023-03-13T13:04:01.921Z,0.93
2023-03-13T13:06:31.969Z,0.98
2023-03-13T13:09:08.379Z,0.70
2023-03-13T13:11:42.664Z,0.90
2023-03-13T13:14:25.972Z,0.90
2023-03-13T13:16:59.371Z,0.90
2023-03-13T13:19:46.211Z,1.02
2023-03-13T13:22:33.635Z,0.98
2023-03-13T13:25:02.883Z,0.80
2023-03-13T13:27:46.132Z,0.98
2023-03-13T13:30:32.651Z,1.00
2023-03-13T13:33:16.086Z,1.10
2023-03-13T13:35:46.500Z,1.00
2023-03-13T13:38:34.543Z,1.00
2023-03-13T13:41:05.171Z,0.80
2023-03-13T13:43:34.628Z,0.80
2023-03-13T13:46:06.071Z,0.90
2023-03-13T13:48:36.609Z,1.00
2023-03-13T13:51:26.296Z,0.90
2023-03-13T13:53:56.530Z,0.88
2023-03-13T13:56:32.418Z,1.15
2023-03-13T13:59:03.080Z,0.82
2023-03-13T14:01:32.012Z,0.82
2023-03-13T14:04:12.573Z,0.80
2023-03-13T14:06:45.621Z,0.70
2023-03-13T14:09:29.078Z,0.80
2023-03-13T14:11:57.856Z,0.90
2023-03-13T14:14:26.469Z,0.82
2023-03-13T14:17:00.502Z,0.73
2023-03-13T14:19:30.460Z,0.70
2023-03-13T14:22:04.460Z,0.65
2023-03-13T14:24:33.160Z,0.80
2023-03-13T14:27:01.691Z,0.73
2023-03-13T14:29:30.491Z,0.90
2023-03-13T14:32:01.067Z,0.82
2023-03-13T14:34:32.660Z,0.80
2023-03-13T14:37:17.313Z,0.63
2023-03-13T14:39:49.228Z,0.60
2023-03-13T14:42:20.988Z,0.70
2023-03-13T14:44:50.631Z,0.60
2023-03-13T14:47:23.221Z,0.93
2023-03-13T14:49:57.188Z,0.60
2023-03-13T14:52:26.037Z,0.70
2023-03-13T14:54:57.147Z,0.70
2023-03-13T14:57:27.696Z,0.50
2023-03-13T14:59:56.409Z,0.65
2023-03-13T15:02:26.409Z,0.60
2023-03-13T15:04:59.868Z,0.50
2023-03-13T15:07:29.053Z,0.55
2023-03-13T15:10:00.772Z,0.50
2023-03-13T15:12:30.560Z,0.60
2023-03-13T15:14:59.948Z,0.50
2023-03-13T15:17:29.889Z,0.60
2023-03-13T15:19:59.082Z,0.50
2023-03-13T15:22:29.978Z,0.30
2023-03-13T15:25:06.365Z,0.50
2023-03-13T15:27:37.573Z,0.40
2023-03-13T15:30:06.909Z,0.52
2023-03-13T15:32:36.607Z,0.60
2023-03-13T15:35:10.195Z,0.50
2023-03-13T15:37:39.952Z,0.45
2023-03-13T15:40:15.766Z,0.50
2023-03-13T15:42:44.696Z,0.47
2023-03-13T15:45:13.705Z,0.60
2023-03-13T15:47:43.639Z,0.50
2023-03-13T15:50:13.983Z,0.45
2023-03-13T15:52:42.826Z,0.40
2023-03-13T15:55:14.100Z,0.43
2023-03-13T15:57:44.091Z,0.50
2023-03-13T16:00:17.742Z,0.82
2023-03-13T16:02:46.118Z,0.50
2023-03-13T16:05:14.443Z,0.50
2023-03-13T16:07:42.864Z,0.80
2023-03-13T16:10:16.731Z,0.60
2023-03-13T16:12:45.376Z,0.90
2023-03-13T16:15:15.139Z,0.73
2023-03-13T16:17:43.610Z,0.63
2023-03-13T16:20:15.434Z,0.65
2023-03-13T16:22:43.938Z,0.77
2023-03-13T16:25:13.008Z,0.60
2023-03-13T16:27:44.715Z,0.55
2023-03-13T16:30:15.959Z,0.52
2023-03-13T16:32:44.962Z,0.50
2023-03-13T16:35:13.731Z,0.63
2023-03-13T16:37:42.621Z,0.50
2023-03-13T16:40:16.088Z,0.90
2023-03-13T16:42:46.095Z,0.50
2023-03-13T16:45:15.798Z,0.70
2023-03-13T16:47:44.899Z,0.70
2023-03-13T16:50:19.335Z,0.70
2023-03-13T16:52:47.831Z,0.60
2023-03-13T16:55:17.138Z,0.70
2023-03-13T16:57:47.342Z,0.73
2023-03-13T17:00:17.617Z,0.63
2023-03-13T17:02:46.665Z,0.77
2023-03-13T17:05:16.226Z,0.85
2023-03-13T17:07:45.656Z,0.77
2023-03-13T17:10:24.019Z,0.75
2023-03-13T17:12:56.372Z,0.80
2023-03-13T17:15:25.156Z,0.70
2023-03-13T17:17:54.302Z,1.40
2023-03-13T17:20:24.041Z,0.93
2023-03-13T17:22:52.634Z,0.82
2023-03-13T17:25:21.674Z,0.90
2023-03-13T17:27:50.439Z,0.88
2023-03-13T17:30:24.529Z,1.10
2023-03-13T17:32:55.816Z,0.90
2023-03-13T17:35:25.065Z,1.17
2023-03-13T17:37:53.525Z,0.90
2023-03-13T17:40:23.350Z,1.02
2023-03-13T17:42:52.776Z,0.85
2023-03-13T17:45:22.351Z,1.00
2023-03-13T17:47:54.415Z,0.95
2023-03-13T17:50:24.058Z,1.00
2023-03-13T17:52:52.669Z,1.40
2023-03-13T17:55:21.536Z,1.17
2023-03-13T17:57:49.999Z,1.02
2023-03-13T18:00:24.250Z,1.20
2023-03-13T18:02:54.877Z,1.30
2023-03-13T18:05:24.633Z,1.60
2023-03-13T18:07:53.734Z,1.50
2023-03-13T18:10:23.009Z,1.60
2023-03-13T18:12:51.903Z,1.80
2023-03-13T18:15:20.998Z,1.60
2023-03-13T18:17:49.426Z,1.40
2023-03-13T18:20:32.455Z,1.70
2023-03-13T18:23:01.012Z,1.20
2023-03-13T18:25:31.388Z,1.17
2023-03-13T18:28:00.457Z,1.40
2023-03-13T18:30:29.429Z,0.90
2023-03-13T18:32:58.116Z,1.00
2023-03-13T18:35:28.251Z,0.90
2023-03-13T18:37:56.747Z,1.00
2023-03-13T18:40:26.749Z,0.90
2023-03-13T18:42:55.340Z,0.73
2023-03-13T18:45:25.627Z,1.00
2023-03-13T18:47:54.242Z,1.07
2023-03-13T18:50:26.122Z,1.20
2023-03-13T18:52:56.953Z,1.00
2023-03-13T18:55:26.281Z,1.10
2023-03-13T18:57:55.431Z,1.10
2023-03-13T19:00:25.224Z,1.30
2023-03-13T19:02:54.075Z,1.30
2023-03-13T19:05:22.704Z,1.53
2023-03-13T19:07:52.037Z,1.80
2023-03-13T19:10:25.167Z,1.80
2023-03-13T19:12:54.308Z,1.70
2023-03-13T19:15:25.760Z,1.50
2023-03-13T19:17:56.183Z,1.33
2023-03-13T19:20:25.766Z,1.40
2023-03-13T19:22:55.958Z,1.30
2023-03-13T19:25:26.034Z,1.30
2023-03-13T19:27:54.519Z,1.40
2023-03-13T19:30:27.065Z,1.37
2023-03-13T19:32:55.581Z,1.10
2023-03-13T19:35:24.219Z,1.40
2023-03-13T19:37:52.665Z,1.27
2023-03-13T19:40:21.739Z,1.50
2023-03-13T19:42:51.707Z,1.33
2023-03-13T19:45:21.901Z,1.33
2023-03-13T19:47:50.976Z,1.73
2023-03-13T19:50:20.944Z,1.40
2023-03-13T19:52:49.412Z,1.27
2023-03-13T19:55:18.185Z,1.37
2023-03-13T19:57:48.267Z,1.67
2023-03-13T20:00:21.292Z,1.40
2023-03-13T20:02:49.928Z,2.10
2023-03-13T20:05:18.478Z,1.70
2023-03-13T20:07:48.271Z,1.70
2023-03-13T20:10:17.040Z,1.60
2023-03-13T20:12:45.496Z,1.90
2023-03-13T20:15:13.983Z,2.10
2023-03-13T20:17:43.809Z,2.00
2023-03-13T20:20:13.751Z,2.00
2023-03-13T20:22:42.544Z,1.77
2023-03-13T20:25:11.505Z,2.23
2023-03-13T20:27:40.208Z,1.97
2023-03-13T20:30:09.437Z,1.70
2023-03-13T20:32:41.196Z,1.77
2023-03-13T20:35:15.929Z,1.70
2023-03-13T20:37:45.038Z,2.30
2023-03-13T20:40:14.016Z,2.47
2023-03-13T20:42:42.524Z,2.27
2023-03-13T20:45:11.080Z,2.30
2023-03-13T20:47:39.786Z,3.13
2023-03-13T20:50:08.962Z,2.73
2023-03-13T20:52:39.076Z,3.43
2023-03-13T20:55:07.614Z,2.97
2023-03-13T20:57:37.323Z,2.70
2023-03-13T21:00:07.018Z,2.70
2023-03-13T21:02:35.515Z,2.53
2023-03-13T21:05:04.214Z,2.93
2023-03-13T21:07:32.664Z,2.73
2023-03-13T21:10:02.651Z,2.80
2023-03-13T21:12:31.075Z,3.27
2023-03-13T21:14:59.616Z,4.80
2023-03-13T21:17:28.270Z,3.63
2023-03-13T21:19:57.013Z,3.40
2023-03-13T21:22:28.477Z,3.37
2023-03-13T21:24:57.269Z,3.00
2023-03-13T21:27:27.337Z,2.30
2023-03-13T21:29:55.723Z,2.40
2023-03-13T21:32:24.263Z,2.30
2023-03-13T21:34:52.740Z,2.37
2023-03-13T21:37:21.233Z,2.50
2023-03-13T21:39:51.670Z,1.53
2023-03-13T21:42:20.297Z,1.60
2023-03-13T21:44:50.024Z,1.40
2023-03-13T21:47:24.230Z,1.30
2023-03-13T21:49:52.733Z,1.30
2023-03-13T21:52:21.342Z,1.07
2023-03-13T21:54:49.905Z,0.70
2023-03-13T21:57:18.876Z,0.80
2023-03-13T21:59:47.232Z,0.83
2023-03-13T22:02:16.971Z,0.70
2023-03-13T22:04:45.379Z,0.60
2023-03-13T22:07:13.758Z,0.60
2023-03-13T22:09:42.208Z,0.60
2023-03-13T22:12:10.764Z,0.60
2023-03-13T22:14:39.242Z,0.50
2023-03-13T22:17:08.064Z,0.50
2023-03-13T22:19:37.915Z,0.60
2023-03-13T22:22:06.272Z,0.50
2023-03-13T22:24:34.803Z,0.50
2023-03-13T22:27:03.406Z,0.67
2023-03-13T22:29:32.522Z,0.47
2023-03-13T22:32:00.925Z,0.60
2023-03-13T22:34:29.716Z,0.60
2023-03-13T22:36:59.501Z,0.70
2023-03-13T22:39:27.856Z,0.60
2023-03-13T22:41:56.270Z,0.67
2023-03-13T22:44:24.773Z,0.70
2023-03-13T22:46:53.139Z,0.60
2023-03-13T22:49:21.526Z,0.70
2023-03-13T22:51:49.600Z,0.80
2023-03-13T22:54:20.342Z,0.70
2023-03-13T22:56:48.721Z,0.60
2023-03-13T22:59:17.256Z,0.60
2023-03-13T23:01:45.614Z,0.70
2023-03-13T23:04:14.217Z,0.73
2023-03-13T23:06:42.575Z,0.70
2023-03-13T23:09:10.961Z,0.80
2023-03-13T23:11:40.693Z,0.83
2023-03-13T23:14:09.094Z,0.70
2023-03-13T23:16:37.661Z,0.87
2023-03-13T23:19:07.343Z,0.97
2023-03-13T23:21:35.794Z,0.90
2023-03-13T23:24:04.218Z,0.80
2023-03-13T23:26:32.572Z,0.90
2023-03-13T23:29:02.355Z,0.83
2023-03-13T23:31:30.720Z,0.90
2023-03-13T23:33:59.763Z,0.80
2023-03-13T23:36:28.308Z,0.80
2023-03-13T23:38:58.361Z,0.60
2023-03-13T23:41:27.007Z,0.80
2023-03-13T23:43:55.385Z,0.67
2023-03-13T23:46:26.956Z,0.57
2023-03-13T23:48:55.674Z,0.50
2023-03-13T23:51:24.673Z,0.43
2023-03-13T23:53:53.357Z,0.40
2023-03-13T23:56:22.019Z,0.67
2023-03-13T23:58:50.401Z,0.50
